sensor_id;sensor_type;location;lat;lon;timestamp;pressure;altitude;pressure_sealevel;temperature;humidity
8756;BME280;4414;42.670;23.228;2024-03-08T00:02:11;93150.63;;;3.48;83.46
8756;BME280;4414;42.670;23.228;2024-03-08T00:04:38;93146.31;;;3.51;82.84
8756;BME280;4414;42.670;23.228;2024-03-08T00:07:04;93147.69;;;3.40;82.85
8756;BME280;4414;42.670;23.228;2024-03-08T00:09:29;93147.44;;;3.38;83.43
8756;BME280;4414;42.670;23.228;2024-03-08T00:11:56;93145.53;;;3.44;82.99
8756;BME280;4414;42.670;23.228;2024-03-08T00:14:21;93143.16;;;3.47;83.54
8756;BME280;4414;42.670;23.228;2024-03-08T00:16:47;93136.31;;;3.34;82.59
8756;BME280;4414;42.670;23.228;2024-03-08T00:19:12;93141.88;;;3.36;83.80
8756;BME280;4414;42.670;23.228;2024-03-08T00:21:38;93145.97;;;3.37;83.88
8756;BME280;4414;42.670;23.228;2024-03-08T00:24:03;93129.13;;;3.40;83.18
8756;BME280;4414;42.670;23.228;2024-03-08T00:26:29;93136.81;;;3.38;83.35
8756;BME280;4414;42.670;23.228;2024-03-08T00:28:55;93134.34;;;3.29;83.71
8756;BME280;4414;42.670;23.228;2024-03-08T00:31:20;93143.25;;;3.26;84.46
8756;BME280;4414;42.670;23.228;2024-03-08T00:33:46;93138.97;;;3.34;83.53
8756;BME280;4414;42.670;23.228;2024-03-08T00:36:12;93135.38;;;3.37;83.83
8756;BME280;4414;42.670;23.228;2024-03-08T00:38:37;93130.56;;;3.41;84.13
8756;BME280;4414;42.670;23.228;2024-03-08T00:41:03;93134.22;;;3.50;84.54
8756;BME280;4414;42.670;23.228;2024-03-08T00:43:28;93126.00;;;3.42;83.68
8756;BME280;4414;42.670;23.228;2024-03-08T00:45:55;93130.34;;;3.45;84.09
8756;BME280;4414;42.670;23.228;2024-03-08T00:48:21;93130.06;;;3.37;84.30
8756;BME280;4414;42.670;23.228;2024-03-08T00:50:46;93126.00;;;3.42;84.03
8756;BME280;4414;42.670;23.228;2024-03-08T00:53:12;93126.28;;;3.50;83.72
8756;BME280;4414;42.670;23.228;2024-03-08T00:55:38;93122.88;;;3.43;84.26
8756;BME280;4414;42.670;23.228;2024-03-08T00:58:04;93117.78;;;3.40;83.47
8756;BME280;4414;42.670;23.228;2024-03-08T01:00:29;93118.47;;;3.35;84.03
8756;BME280;4414;42.670;23.228;2024-03-08T01:02:56;93115.31;;;3.31;84.33
8756;BME280;4414;42.670;23.228;2024-03-08T01:05:22;93115.03;;;3.23;84.78
8756;BME280;4414;42.670;23.228;2024-03-08T01:07:50;93118.38;;;3.18;85.08
8756;BME280;4414;42.670;23.228;2024-03-08T01:10:16;93114.47;;;3.14;84.83
8756;BME280;4414;42.670;23.228;2024-03-08T01:12:42;93112.50;;;3.09;84.37
8756;BME280;4414;42.670;23.228;2024-03-08T01:15:10;93115.84;;;3.04;85.47
8756;BME280;4414;42.670;23.228;2024-03-08T01:17:36;93110.25;;;2.96;84.78
8756;BME280;4414;42.670;23.228;2024-03-08T01:20:03;93112.69;;;3.00;85.73
8756;BME280;4414;42.670;23.228;2024-03-08T01:22:28;93102.50;;;2.93;85.30
8756;BME280;4414;42.670;23.228;2024-03-08T01:24:55;93102.31;;;2.96;85.90
8756;BME280;4414;42.670;23.228;2024-03-08T01:27:21;93105.03;;;3.07;85.84
8756;BME280;4414;42.670;23.228;2024-03-08T01:29:46;93101.66;;;3.07;85.88
8756;BME280;4414;42.670;23.228;2024-03-08T01:32:11;93101.34;;;2.99;85.09
8756;BME280;4414;42.670;23.228;2024-03-08T01:34:37;93097.28;;;2.98;84.73
8756;BME280;4414;42.670;23.228;2024-03-08T01:37:02;93092.31;;;2.80;85.60
8756;BME280;4414;42.670;23.228;2024-03-08T01:39:28;93092.13;;;2.89;85.37
8756;BME280;4414;42.670;23.228;2024-03-08T01:41:53;93094.88;;;3.00;85.95
8756;BME280;4414;42.670;23.228;2024-03-08T01:44:19;93085.50;;;3.05;84.94
8756;BME280;4414;42.670;23.228;2024-03-08T01:46:45;93092.72;;;3.04;85.47
8756;BME280;4414;42.670;23.228;2024-03-08T01:49:12;93094.88;;;3.00;84.56
8756;BME280;4414;42.670;23.228;2024-03-08T01:51:38;93094.63;;;2.98;84.33
8756;BME280;4414;42.670;23.228;2024-03-08T01:54:06;93092.00;;;3.04;85.59
8756;BME280;4414;42.670;23.228;2024-03-08T01:56:31;93087.94;;;3.08;85.37
8756;BME280;4414;42.670;23.228;2024-03-08T01:58:58;93091.91;;;3.24;84.52
8756;BME280;4414;42.670;23.228;2024-03-08T02:01:25;93088.59;;;3.34;83.73
8756;BME280;4414;42.670;23.228;2024-03-08T02:03:50;93077.28;;;3.39;83.90
8756;BME280;4414;42.670;23.228;2024-03-08T02:06:16;93083.56;;;3.42;83.62
8756;BME280;4414;42.670;23.228;2024-03-08T02:08:45;93086.78;;;3.57;83.78
8756;BME280;4414;42.670;23.228;2024-03-08T02:11:12;93083.94;;;3.66;82.81
8756;BME280;4414;42.670;23.228;2024-03-08T02:13:38;93085.13;;;3.65;83.19
8756;BME280;4414;42.670;23.228;2024-03-08T02:16:03;93083.22;;;3.66;82.28
8756;BME280;4414;42.670;23.228;2024-03-08T02:18:30;93087.78;;;3.65;83.31
8756;BME280;4414;42.670;23.228;2024-03-08T02:20:58;93085.38;;;3.67;82.65
8756;BME280;4414;42.670;23.228;2024-03-08T02:23:25;93083.22;;;3.71;80.82
8756;BME280;4414;42.670;23.228;2024-03-08T02:25:51;93083.97;;;3.72;81.52
8756;BME280;4414;42.670;23.228;2024-03-08T02:28:17;93090.75;;;3.78;82.34
8756;BME280;4414;42.670;23.228;2024-03-08T02:30:46;93081.84;;;3.81;81.08
8756;BME280;4414;42.670;23.228;2024-03-08T02:33:14;93083.06;;;3.86;82.41
8756;BME280;4414;42.670;23.228;2024-03-08T02:35:42;93089.34;;;3.83;81.48
8756;BME280;4414;42.670;23.228;2024-03-08T02:38:11;93087.88;;;3.87;81.22
8756;BME280;4414;42.670;23.228;2024-03-08T02:40:36;93085.22;;;3.87;80.55
8756;BME280;4414;42.670;23.228;2024-03-08T02:43:02;93084.72;;;3.83;81.61
8756;BME280;4414;42.670;23.228;2024-03-08T02:45:30;93092.72;;;3.89;81.18
8756;BME280;4414;42.670;23.228;2024-03-08T02:47:55;93095.56;;;3.80;79.92
8756;BME280;4414;42.670;23.228;2024-03-08T02:50:21;93090.25;;;3.69;81.31
8756;BME280;4414;42.670;23.228;2024-03-08T02:52:48;93088.09;;;3.73;80.81
8756;BME280;4414;42.670;23.228;2024-03-08T02:55:13;93092.41;;;3.70;80.68
8756;BME280;4414;42.670;23.228;2024-03-08T02:57:42;93093.56;;;3.64;81.11
8756;BME280;4414;42.670;23.228;2024-03-08T03:00:09;93088.97;;;3.59;82.00
8756;BME280;4414;42.670;23.228;2024-03-08T03:02:35;93086.81;;;3.63;81.90
8756;BME280;4414;42.670;23.228;2024-03-08T03:05:00;93096.72;;;3.68;82.63
8756;BME280;4414;42.670;23.228;2024-03-08T03:07:30;93086.84;;;3.68;82.56
8756;BME280;4414;42.670;23.228;2024-03-08T03:09:56;93087.38;;;3.78;83.21
8756;BME280;4414;42.670;23.228;2024-03-08T03:12:21;93089.78;;;3.76;82.04
8756;BME280;4414;42.670;23.228;2024-03-08T03:14:47;93094.16;;;3.79;82.99
8756;BME280;4414;42.670;23.228;2024-03-08T03:17:13;93098.03;;;3.89;82.19
8756;BME280;4414;42.670;23.228;2024-03-08T03:19:40;93092.25;;;3.90;81.63
8756;BME280;4414;42.670;23.228;2024-03-08T03:22:07;93103.56;;;3.91;81.62
8756;BME280;4414;42.670;23.228;2024-03-08T03:24:35;93101.16;;;3.87;81.96
8756;BME280;4414;42.670;23.228;2024-03-08T03:27:06;93102.63;;;3.88;81.21
8756;BME280;4414;42.670;23.228;2024-03-08T03:29:39;93105.94;;;3.78;80.93
8756;BME280;4414;42.670;23.228;2024-03-08T03:32:05;93110.75;;;3.79;80.79
8756;BME280;4414;42.670;23.228;2024-03-08T03:34:33;93117.53;;;3.80;81.16
8756;BME280;4414;42.670;23.228;2024-03-08T03:37:01;93113.63;;;3.70;81.55
8756;BME280;4414;42.670;23.228;2024-03-08T03:39:28;93117.91;;;3.62;79.68
8756;BME280;4414;42.670;23.228;2024-03-08T03:41:56;93112.38;;;3.60;79.33
8756;BME280;4414;42.670;23.228;2024-03-08T03:44:22;93125.34;;;3.53;78.90
8756;BME280;4414;42.670;23.228;2024-03-08T03:46:49;93130.00;;;3.26;80.16
8756;BME280;4414;42.670;23.228;2024-03-08T03:49:16;93124.13;;;3.17;80.19
8756;BME280;4414;42.670;23.228;2024-03-08T03:51:42;93121.94;;;3.15;81.44
8756;BME280;4414;42.670;23.228;2024-03-08T03:54:07;93135.03;;;3.24;81.11
8756;BME280;4414;42.670;23.228;2024-03-08T03:56:33;93137.47;;;3.28;81.25
8756;BME280;4414;42.670;23.228;2024-03-08T03:58:58;93134.28;;;3.18;80.55
8756;BME280;4414;42.670;23.228;2024-03-08T04:01:24;93127.13;;;2.99;80.26
8756;BME280;4414;42.670;23.228;2024-03-08T04:03:49;93133.38;;;2.96;80.33
8756;BME280;4414;42.670;23.228;2024-03-08T04:06:15;93140.88;;;3.03;80.65
8756;BME280;4414;42.670;23.228;2024-03-08T04:08:40;93145.16;;;2.95;80.39
8756;BME280;4414;42.670;23.228;2024-03-08T04:11:07;93142.50;;;2.95;79.78
8756;BME280;4414;42.670;23.228;2024-03-08T04:13:34;93148.53;;;2.95;80.78
8756;BME280;4414;42.670;23.228;2024-03-08T04:15:59;93152.69;;;3.02;80.95
8756;BME280;4414;42.670;23.228;2024-03-08T04:18:25;93150.50;;;3.00;80.31
8756;BME280;4414;42.670;23.228;2024-03-08T04:20:51;93154.88;;;3.03;80.33
8756;BME280;4414;42.670;23.228;2024-03-08T04:23:16;93160.97;;;2.84;76.81
8756;BME280;4414;42.670;23.228;2024-03-08T04:25:43;93167.88;;;2.76;76.92
8756;BME280;4414;42.670;23.228;2024-03-08T04:28:09;93162.25;;;2.68;78.68
8756;BME280;4414;42.670;23.228;2024-03-08T04:30:40;93158.56;;;2.60;77.35
8756;BME280;4414;42.670;23.228;2024-03-08T04:33:06;93170.75;;;2.52;78.36
8756;BME280;4414;42.670;23.228;2024-03-08T04:35:32;93167.66;;;2.53;77.09
8756;BME280;4414;42.670;23.228;2024-03-08T04:37:58;93178.06;;;2.63;79.34
8756;BME280;4414;42.670;23.228;2024-03-08T04:40:23;93181.47;;;2.63;80.05
8756;BME280;4414;42.670;23.228;2024-03-08T04:42:49;93175.44;;;2.63;79.58
8756;BME280;4414;42.670;23.228;2024-03-08T04:45:16;93174.78;;;2.68;79.00
8756;BME280;4414;42.670;23.228;2024-03-08T04:47:41;93177.41;;;2.68;78.57
8756;BME280;4414;42.670;23.228;2024-03-08T04:50:07;93179.50;;;2.58;78.33
8756;BME280;4414;42.670;23.228;2024-03-08T04:52:34;93177.63;;;2.64;79.20
8756;BME280;4414;42.670;23.228;2024-03-08T04:54:59;93180.94;;;2.59;78.99
8756;BME280;4414;42.670;23.228;2024-03-08T04:57:25;93178.22;;;2.53;79.31
8756;BME280;4414;42.670;23.228;2024-03-08T04:59:51;93179.38;;;2.47;79.68
8756;BME280;4414;42.670;23.228;2024-03-08T05:02:16;93174.81;;;2.47;80.61
8756;BME280;4414;42.670;23.228;2024-03-08T05:04:43;93174.28;;;2.43;79.65
8756;BME280;4414;42.670;23.228;2024-03-08T05:07:08;93179.09;;;2.45;79.88
8756;BME280;4414;42.670;23.228;2024-03-08T05:09:33;93183.94;;;2.46;80.25
8756;BME280;4414;42.670;23.228;2024-03-08T05:12:01;93185.06;;;2.40;80.21
8756;BME280;4414;42.670;23.228;2024-03-08T05:14:26;93179.78;;;2.40;80.47
8756;BME280;4414;42.670;23.228;2024-03-08T05:16:52;93191.53;;;2.39;80.31
8756;BME280;4414;42.670;23.228;2024-03-08T05:19:19;93190.16;;;2.43;80.38
8756;BME280;4414;42.670;23.228;2024-03-08T05:21:48;93199.09;;;2.46;80.27
8756;BME280;4414;42.670;23.228;2024-03-08T05:24:14;93198.56;;;2.42;81.11
8756;BME280;4414;42.670;23.228;2024-03-08T05:26:42;93205.41;;;2.28;82.41
8756;BME280;4414;42.670;23.228;2024-03-08T05:29:10;93209.38;;;2.38;81.15
8756;BME280;4414;42.670;23.228;2024-03-08T05:31:47;93209.09;;;2.36;81.22
8756;BME280;4414;42.670;23.228;2024-03-08T05:34:13;93211.81;;;2.22;81.42
8756;BME280;4414;42.670;23.228;2024-03-08T05:36:40;93223.41;;;2.24;81.43
8756;BME280;4414;42.670;23.228;2024-03-08T05:39:08;93223.84;;;2.23;81.69
8756;BME280;4414;42.670;23.228;2024-03-08T05:41:34;93231.41;;;2.30;82.59
8756;BME280;4414;42.670;23.228;2024-03-08T05:43:59;93231.13;;;2.28;81.57
8756;BME280;4414;42.670;23.228;2024-03-08T05:46:24;93235.03;;;2.32;81.59
8756;BME280;4414;42.670;23.228;2024-03-08T05:48:50;93238.66;;;2.35;82.09
8756;BME280;4414;42.670;23.228;2024-03-08T05:51:16;93242.03;;;2.35;82.16
8756;BME280;4414;42.670;23.228;2024-03-08T05:53:41;93249.50;;;2.37;82.25
8756;BME280;4414;42.670;23.228;2024-03-08T05:56:06;93243.41;;;2.31;81.24
8756;BME280;4414;42.670;23.228;2024-03-08T05:58:34;93249.66;;;2.28;82.55
8756;BME280;4414;42.670;23.228;2024-03-08T06:01:00;93239.34;;;2.30;80.85
8756;BME280;4414;42.670;23.228;2024-03-08T06:03:25;93251.19;;;2.34;81.58
8756;BME280;4414;42.670;23.228;2024-03-08T06:05:51;93257.94;;;2.35;82.33
8756;BME280;4414;42.670;23.228;2024-03-08T06:08:16;93256.53;;;2.40;81.73
8756;BME280;4414;42.670;23.228;2024-03-08T06:10:42;93258.13;;;2.32;81.96
8756;BME280;4414;42.670;23.228;2024-03-08T06:13:07;93263.16;;;2.30;83.33
8756;BME280;4414;42.670;23.228;2024-03-08T06:15:32;93260.50;;;2.30;82.07
8756;BME280;4414;42.670;23.228;2024-03-08T06:17:59;93255.78;;;2.19;81.84
8756;BME280;4414;42.670;23.228;2024-03-08T06:20:25;93255.25;;;2.15;81.80
8756;BME280;4414;42.670;23.228;2024-03-08T06:22:51;93270.41;;;2.15;81.25
8756;BME280;4414;42.670;23.228;2024-03-08T06:25:17;93265.03;;;2.09;81.40
8756;BME280;4414;42.670;23.228;2024-03-08T06:27:43;93269.16;;;2.10;82.09
8756;BME280;4414;42.670;23.228;2024-03-08T06:30:09;93274.44;;;2.10;82.55
8756;BME280;4414;42.670;23.228;2024-03-08T06:32:38;93266.56;;;2.16;82.96
8756;BME280;4414;42.670;23.228;2024-03-08T06:35:04;93265.91;;;2.21;82.73
8756;BME280;4414;42.670;23.228;2024-03-08T06:37:32;93271.13;;;2.15;82.40
8756;BME280;4414;42.670;23.228;2024-03-08T06:39:58;93272.69;;;2.22;82.04
8756;BME280;4414;42.670;23.228;2024-03-08T06:42:23;93269.09;;;2.25;82.50
8756;BME280;4414;42.670;23.228;2024-03-08T06:44:48;93282.59;;;2.27;82.27
8756;BME280;4414;42.670;23.228;2024-03-08T06:47:17;93274.97;;;2.14;82.76
8756;BME280;4414;42.670;23.228;2024-03-08T06:49:43;93273.69;;;2.24;83.29
8756;BME280;4414;42.670;23.228;2024-03-08T06:52:09;93279.59;;;2.19;83.68
8756;BME280;4414;42.670;23.228;2024-03-08T06:54:35;93269.56;;;2.23;83.73
8756;BME280;4414;42.670;23.228;2024-03-08T06:57:02;93282.94;;;2.34;82.06
8756;BME280;4414;42.670;23.228;2024-03-08T06:59:28;93282.47;;;2.36;81.97
8756;BME280;4414;42.670;23.228;2024-03-08T07:01:54;93284.00;;;2.42;82.39
8756;BME280;4414;42.670;23.228;2024-03-08T07:04:19;93286.19;;;2.44;81.88
8756;BME280;4414;42.670;23.228;2024-03-08T07:06:49;93289.09;;;2.46;81.95
8756;BME280;4414;42.670;23.228;2024-03-08T07:09:18;93288.38;;;2.45;79.53
8756;BME280;4414;42.670;23.228;2024-03-08T07:11:43;93285.94;;;2.42;80.37
8756;BME280;4414;42.670;23.228;2024-03-08T07:14:08;93288.00;;;2.52;81.20
8756;BME280;4414;42.670;23.228;2024-03-08T07:16:34;93284.88;;;2.54;81.30
8756;BME280;4414;42.670;23.228;2024-03-08T07:19:04;93285.47;;;2.64;80.62
8756;BME280;4414;42.670;23.228;2024-03-08T07:21:30;93288.31;;;2.60;80.14
8756;BME280;4414;42.670;23.228;2024-03-08T07:23:56;93295.06;;;2.61;79.47
8756;BME280;4414;42.670;23.228;2024-03-08T07:26:24;93295.84;;;2.67;80.18
8756;BME280;4414;42.670;23.228;2024-03-08T07:28:50;93297.38;;;2.74;81.55
8756;BME280;4414;42.670;23.228;2024-03-08T07:31:15;93299.50;;;2.90;82.10
8756;BME280;4414;42.670;23.228;2024-03-08T07:33:56;93300.50;;;2.92;80.02
8756;BME280;4414;42.670;23.228;2024-03-08T07:36:24;93287.78;;;2.96;79.63
8756;BME280;4414;42.670;23.228;2024-03-08T07:38:49;93294.25;;;2.95;80.40
8756;BME280;4414;42.670;23.228;2024-03-08T07:41:15;93292.38;;;3.01;79.42
8756;BME280;4414;42.670;23.228;2024-03-08T07:43:41;93301.53;;;3.00;79.19
8756;BME280;4414;42.670;23.228;2024-03-08T07:46:09;93309.06;;;3.07;78.97
8756;BME280;4414;42.670;23.228;2024-03-08T07:48:35;93307.47;;;3.15;78.61
8756;BME280;4414;42.670;23.228;2024-03-08T07:51:02;93307.38;;;3.04;79.73
8756;BME280;4414;42.670;23.228;2024-03-08T07:53:28;93307.75;;;2.97;79.20
8756;BME280;4414;42.670;23.228;2024-03-08T07:55:53;93303.41;;;2.94;79.61
8756;BME280;4414;42.670;23.228;2024-03-08T07:58:19;93306.50;;;2.93;80.88
8756;BME280;4414;42.670;23.228;2024-03-08T08:00:44;93310.94;;;3.01;80.49
8756;BME280;4414;42.670;23.228;2024-03-08T08:03:10;93304.13;;;2.95;80.71
8756;BME280;4414;42.670;23.228;2024-03-08T08:05:35;93314.91;;;2.91;80.46
8756;BME280;4414;42.670;23.228;2024-03-08T08:08:04;93309.22;;;2.98;80.70
8756;BME280;4414;42.670;23.228;2024-03-08T08:10:32;93301.13;;;3.07;82.05
8756;BME280;4414;42.670;23.228;2024-03-08T08:12:58;93300.91;;;3.11;80.66
8756;BME280;4414;42.670;23.228;2024-03-08T08:15:24;93301.25;;;3.18;80.58
8756;BME280;4414;42.670;23.228;2024-03-08T08:17:49;93303.91;;;3.18;79.97
8756;BME280;4414;42.670;23.228;2024-03-08T08:20:15;93308.31;;;3.27;79.26
8756;BME280;4414;42.670;23.228;2024-03-08T08:22:42;93306.38;;;3.27;77.76
8756;BME280;4414;42.670;23.228;2024-03-08T08:25:10;93308.25;;;3.47;78.98
8756;BME280;4414;42.670;23.228;2024-03-08T08:27:41;93306.09;;;3.45;79.18
8756;BME280;4414;42.670;23.228;2024-03-08T08:30:08;93314.19;;;3.62;76.56
8756;BME280;4414;42.670;23.228;2024-03-08T08:32:37;93316.00;;;3.76;77.07
8756;BME280;4414;42.670;23.228;2024-03-08T08:35:03;93308.13;;;3.87;76.60
8756;BME280;4414;42.670;23.228;2024-03-08T08:37:30;93301.69;;;3.99;76.64
8756;BME280;4414;42.670;23.228;2024-03-08T08:39:57;93293.66;;;4.25;76.16
8756;BME280;4414;42.670;23.228;2024-03-08T08:42:23;93297.56;;;4.35;73.75
8756;BME280;4414;42.670;23.228;2024-03-08T08:44:48;93297.53;;;4.24;74.87
8756;BME280;4414;42.670;23.228;2024-03-08T08:47:16;93297.69;;;4.15;73.86
8756;BME280;4414;42.670;23.228;2024-03-08T08:49:44;93291.41;;;4.12;74.84
8756;BME280;4414;42.670;23.228;2024-03-08T08:52:11;93297.81;;;4.37;73.54
8756;BME280;4414;42.670;23.228;2024-03-08T08:54:37;93306.78;;;4.40;72.03
8756;BME280;4414;42.670;23.228;2024-03-08T08:57:02;93306.56;;;4.43;72.13
8756;BME280;4414;42.670;23.228;2024-03-08T08:59:33;93299.16;;;4.58;72.81
8756;BME280;4414;42.670;23.228;2024-03-08T09:02:01;93300.69;;;4.81;72.42
8756;BME280;4414;42.670;23.228;2024-03-08T09:04:27;93301.25;;;4.96;70.40
8756;BME280;4414;42.670;23.228;2024-03-08T09:06:53;93298.88;;;5.04;67.82
8756;BME280;4414;42.670;23.228;2024-03-08T09:09:19;93293.31;;;5.07;69.38
8756;BME280;4414;42.670;23.228;2024-03-08T09:11:44;93292.13;;;5.19;68.78
8756;BME280;4414;42.670;23.228;2024-03-08T09:14:11;93294.28;;;5.10;69.06
8756;BME280;4414;42.670;23.228;2024-03-08T09:16:37;93300.09;;;5.08;69.25
8756;BME280;4414;42.670;23.228;2024-03-08T09:19:02;93294.59;;;5.29;69.63
8756;BME280;4414;42.670;23.228;2024-03-08T09:21:28;93285.44;;;5.52;70.09
8756;BME280;4414;42.670;23.228;2024-03-08T09:23:53;93292.47;;;5.93;68.09
8756;BME280;4414;42.670;23.228;2024-03-08T09:26:20;93285.69;;;5.81;66.96
8756;BME280;4414;42.670;23.228;2024-03-08T09:28:47;93281.09;;;5.71;67.62
8756;BME280;4414;42.670;23.228;2024-03-08T09:31:13;93293.19;;;5.77;66.85
8756;BME280;4414;42.670;23.228;2024-03-08T09:33:38;93288.84;;;5.74;67.31
8756;BME280;4414;42.670;23.228;2024-03-08T09:36:06;93298.78;;;5.96;67.22
8756;BME280;4414;42.670;23.228;2024-03-08T09:38:33;93300.47;;;6.10;64.56
8756;BME280;4414;42.670;23.228;2024-03-08T09:40:59;93298.53;;;6.22;65.56
8756;BME280;4414;42.670;23.228;2024-03-08T09:43:27;93295.84;;;6.33;62.64
8756;BME280;4414;42.670;23.228;2024-03-08T09:45:53;93294.91;;;6.14;63.74
8756;BME280;4414;42.670;23.228;2024-03-08T09:48:22;93304.13;;;5.96;62.91
8756;BME280;4414;42.670;23.228;2024-03-08T09:50:48;93301.69;;;5.92;63.83
8756;BME280;4414;42.670;23.228;2024-03-08T09:53:14;93295.38;;;5.79;63.24
8756;BME280;4414;42.670;23.228;2024-03-08T09:55:40;93296.31;;;5.81;63.83
8756;BME280;4414;42.670;23.228;2024-03-08T09:58:12;93304.34;;;5.92;63.92
8756;BME280;4414;42.670;23.228;2024-03-08T10:00:53;93305.81;;;5.99;62.26
8756;BME280;4414;42.670;23.228;2024-03-08T10:03:19;93306.78;;;6.07;63.23
8756;BME280;4414;42.670;23.228;2024-03-08T10:05:45;93302.91;;;6.08;60.77
8756;BME280;4414;42.670;23.228;2024-03-08T10:08:10;93293.69;;;5.98;60.83
8756;BME280;4414;42.670;23.228;2024-03-08T10:10:37;93308.72;;;6.01;61.22
8756;BME280;4414;42.670;23.228;2024-03-08T10:13:08;93294.66;;;6.12;62.07
8756;BME280;4414;42.670;23.228;2024-03-08T10:15:34;93288.75;;;6.57;61.57
8756;BME280;4414;42.670;23.228;2024-03-08T10:18:00;93301.00;;;6.99;61.80
8756;BME280;4414;42.670;23.228;2024-03-08T10:20:28;93300.31;;;6.87;60.04
8756;BME280;4414;42.670;23.228;2024-03-08T10:22:59;93300.16;;;6.58;59.07
8756;BME280;4414;42.670;23.228;2024-03-08T10:25:25;93297.53;;;6.41;60.93
8756;BME280;4414;42.670;23.228;2024-03-08T10:27:50;93299.78;;;5.93;62.56
8756;BME280;4414;42.670;23.228;2024-03-08T10:30:16;93288.63;;;5.94;62.58
8756;BME280;4414;42.670;23.228;2024-03-08T10:32:47;93295.66;;;6.03;62.39
8756;BME280;4414;42.670;23.228;2024-03-08T10:35:13;93301.69;;;5.98;61.28
8756;BME280;4414;42.670;23.228;2024-03-08T10:37:46;93289.34;;;6.06;62.20
8756;BME280;4414;42.670;23.228;2024-03-08T10:40:19;93286.91;;;6.19;61.53
8756;BME280;4414;42.670;23.228;2024-03-08T10:43:05;93295.88;;;6.16;61.45
8756;BME280;4414;42.670;23.228;2024-03-08T10:45:38;93280.38;;;6.03;60.77
8756;BME280;4414;42.670;23.228;2024-03-08T10:50:53;93284.75;;;5.90;60.75
8756;BME280;4414;42.670;23.228;2024-03-08T10:53:19;93283.28;;;6.06;62.43
8756;BME280;4414;42.670;23.228;2024-03-08T10:55:46;93278.44;;;6.21;60.47
8756;BME280;4414;42.670;23.228;2024-03-08T10:58:12;93279.66;;;6.25;60.18
8756;BME280;4414;42.670;23.228;2024-03-08T11:00:38;93268.97;;;6.20;59.52
8756;BME280;4414;42.670;23.228;2024-03-08T11:03:04;93264.88;;;6.19;59.93
8756;BME280;4414;42.670;23.228;2024-03-08T11:05:39;93266.09;;;6.23;60.17
8756;BME280;4414;42.670;23.228;2024-03-08T11:10:52;93253.97;;;6.33;59.14
8756;BME280;4414;42.670;23.228;2024-03-08T11:13:39;93257.03;;;6.65;59.94
8756;BME280;4414;42.670;23.228;2024-03-08T11:19:05;93252.28;;;6.99;58.44
8756;BME280;4414;42.670;23.228;2024-03-08T11:21:33;93246.41;;;7.11;55.09
8756;BME280;4414;42.670;23.228;2024-03-08T11:24:06;93245.44;;;7.09;55.71
8756;BME280;4414;42.670;23.228;2024-03-08T11:26:33;93245.53;;;7.33;56.29
8756;BME280;4414;42.670;23.228;2024-03-08T11:32:10;93239.50;;;7.62;55.07
8756;BME280;4414;42.670;23.228;2024-03-08T11:34:36;93230.41;;;7.76;54.70
8756;BME280;4414;42.670;23.228;2024-03-08T11:37:06;93239.50;;;7.67;52.86
8756;BME280;4414;42.670;23.228;2024-03-08T11:39:47;93239.50;;;7.62;54.69
8756;BME280;4414;42.670;23.228;2024-03-08T11:42:14;93233.25;;;7.19;56.07
8756;BME280;4414;42.670;23.228;2024-03-08T11:44:43;93242.56;;;6.96;55.38
8756;BME280;4414;42.670;23.228;2024-03-08T11:47:10;93239.97;;;6.84;58.12
8756;BME280;4414;42.670;23.228;2024-03-08T11:49:36;93235.88;;;6.78;57.31
8756;BME280;4414;42.670;23.228;2024-03-08T11:52:02;93238.66;;;7.02;56.09
8756;BME280;4414;42.670;23.228;2024-03-08T11:54:28;93231.00;;;7.28;55.19
8756;BME280;4414;42.670;23.228;2024-03-08T11:56:56;93233.88;;;7.71;57.96
8756;BME280;4414;42.670;23.228;2024-03-08T11:59:29;93238.47;;;8.00;55.29
8756;BME280;4414;42.670;23.228;2024-03-08T12:02:05;93239.94;;;8.01;54.00
8756;BME280;4414;42.670;23.228;2024-03-08T12:04:32;93226.44;;;7.88;56.38
8756;BME280;4414;42.670;23.228;2024-03-08T12:07:01;93234.44;;;7.58;55.95
8756;BME280;4414;42.670;23.228;2024-03-08T12:09:28;93234.22;;;7.16;56.47
8756;BME280;4414;42.670;23.228;2024-03-08T12:11:54;93231.91;;;7.01;58.08
8756;BME280;4414;42.670;23.228;2024-03-08T12:14:20;93235.72;;;7.06;57.74
8756;BME280;4414;42.670;23.228;2024-03-08T12:16:46;93229.84;;;7.18;55.44
8756;BME280;4414;42.670;23.228;2024-03-08T12:19:13;93237.00;;;7.40;56.25
8756;BME280;4414;42.670;23.228;2024-03-08T12:21:39;93235.22;;;7.53;54.17
8756;BME280;4414;42.670;23.228;2024-03-08T12:24:15;93217.38;;;7.37;53.78
8756;BME280;4414;42.670;23.228;2024-03-08T12:26:42;93224.09;;;7.44;53.18
8756;BME280;4414;42.670;23.228;2024-03-08T12:29:25;93225.25;;;7.54;53.41
8756;BME280;4414;42.670;23.228;2024-03-08T12:31:58;93216.59;;;7.07;55.14
8756;BME280;4414;42.670;23.228;2024-03-08T12:34:26;93214.13;;;7.15;56.58
8756;BME280;4414;42.670;23.228;2024-03-08T12:36:53;93208.69;;;7.31;55.96
8756;BME280;4414;42.670;23.228;2024-03-08T12:39:22;93214.25;;;7.28;55.98
8756;BME280;4414;42.670;23.228;2024-03-08T12:41:48;93203.44;;;7.15;56.58
8756;BME280;4414;42.670;23.228;2024-03-08T12:44:17;93211.13;;;7.29;56.44
8756;BME280;4414;42.670;23.228;2024-03-08T12:46:44;93215.31;;;7.54;57.27
8756;BME280;4414;42.670;23.228;2024-03-08T12:49:10;93203.44;;;7.80;56.47
8756;BME280;4414;42.670;23.228;2024-03-08T12:51:37;93208.66;;;8.20;55.85
8756;BME280;4414;42.670;23.228;2024-03-08T12:54:04;93208.13;;;8.27;52.46
8756;BME280;4414;42.670;23.228;2024-03-08T12:56:33;93203.63;;;8.41;52.62
8756;BME280;4414;42.670;23.228;2024-03-08T12:59:00;93198.53;;;8.13;51.48
8756;BME280;4414;42.670;23.228;2024-03-08T13:01:26;93203.94;;;7.78;53.61
8756;BME280;4414;42.670;23.228;2024-03-08T13:03:52;93214.28;;;7.63;55.65
8756;BME280;4414;42.670;23.228;2024-03-08T13:06:18;93196.97;;;7.40;56.14
8756;BME280;4414;42.670;23.228;2024-03-08T13:08:47;93207.78;;;7.53;56.89
8756;BME280;4414;42.670;23.228;2024-03-08T13:11:13;93197.00;;;7.34;55.42
8756;BME280;4414;42.670;23.228;2024-03-08T13:13:42;93201.25;;;7.19;55.91
8756;BME280;4414;42.670;23.228;2024-03-08T13:16:08;93204.88;;;7.21;56.46
8756;BME280;4414;42.670;23.228;2024-03-08T13:18:34;93206.13;;;7.15;57.74
8756;BME280;4414;42.670;23.228;2024-03-08T13:21:00;93201.69;;;7.23;56.87
8756;BME280;4414;42.670;23.228;2024-03-08T13:23:30;93203.50;;;7.04;57.40
8756;BME280;4414;42.670;23.228;2024-03-08T13:25:56;93209.06;;;7.11;56.30
8756;BME280;4414;42.670;23.228;2024-03-08T13:28:24;93199.09;;;7.12;57.44
8756;BME280;4414;42.670;23.228;2024-03-08T13:30:55;93198.44;;;7.00;58.50
8756;BME280;4414;42.670;23.228;2024-03-08T13:33:23;93194.28;;;7.05;58.39